createdAt,value
2022-09-15T00:01:49.784Z,6.10
2022-09-15T00:04:21.546Z,6.60
2022-09-15T00:06:53.295Z,7.10
2022-09-15T00:09:25.114Z,5.60
2022-09-15T00:11:58.697Z,6.20
2022-09-15T00:14:30.406Z,6.50
2022-09-15T00:17:02.208Z,6.30
2022-09-15T00:19:34.012Z,7.20
2022-09-15T00:22:07.359Z,6.30
2022-09-15T00:24:39.371Z,6.60
2022-09-15T00:27:12.182Z,6.70
2022-09-15T00:29:44.210Z,6.60
2022-09-15T00:32:19.210Z,6.70
2022-09-15T00:34:52.322Z,6.10
2022-09-15T00:37:24.645Z,6.10
2022-09-15T00:39:56.712Z,6.40
2022-09-15T00:42:30.079Z,6.40
2022-09-15T00:45:03.363Z,6.20
2022-09-15T00:47:40.294Z,5.30
2022-09-15T00:50:15.342Z,4.80
2022-09-15T00:52:51.338Z,5.90
2022-09-15T00:55:27.624Z,5.00
2022-09-15T00:58:03.083Z,5.00
2022-09-15T01:00:36.874Z,4.60
2022-09-15T01:03:09.450Z,4.90
2022-09-15T01:05:46.230Z,5.20
2022-09-15T01:08:23.563Z,4.90
2022-09-15T01:10:55.313Z,4.80
2022-09-15T01:13:33.000Z,4.60
2022-09-15T01:16:12.575Z,4.70
2022-09-15T01:19:09.115Z,4.50
2022-09-15T01:21:46.728Z,5.20
2022-09-15T01:24:47.974Z,4.80
2022-09-15T01:30:27.281Z,4.60
2022-09-15T01:33:14.104Z,5.10
2022-09-15T01:35:57.951Z,4.80
2022-09-15T01:38:40.700Z,4.70
2022-09-15T01:41:19.192Z,5.30
2022-09-15T01:43:56.855Z,4.90
2022-09-15T01:46:32.367Z,4.50
2022-09-15T01:49:06.200Z,5.00
2022-09-15T01:51:42.331Z,5.50
2022-09-15T01:54:16.033Z,4.90
2022-09-15T01:56:47.907Z,5.40
2022-09-15T01:59:19.616Z,5.00
2022-09-15T02:02:00.027Z,7.00
2022-09-15T02:04:38.289Z,5.10
2022-09-15T02:07:18.143Z,6.00
2022-09-15T02:09:56.963Z,6.10
2022-09-15T02:12:36.164Z,5.90
2022-09-15T02:15:12.091Z,6.20
2022-09-15T02:17:54.184Z,7.00
2022-09-15T02:20:34.392Z,6.80
2022-09-15T02:23:13.983Z,6.80
2022-09-15T02:25:51.702Z,6.90
2022-09-15T02:28:33.059Z,7.00
2022-09-15T02:31:08.257Z,7.00
2022-09-15T02:33:46.020Z,7.00
2022-09-15T02:36:20.053Z,6.70
2022-09-15T02:38:58.157Z,7.40
2022-09-15T02:41:30.145Z,7.50
2022-09-15T02:44:02.776Z,6.90
2022-09-15T02:46:34.556Z,6.90
2022-09-15T02:49:06.393Z,7.40
2022-09-15T02:51:38.125Z,7.30
2022-09-15T02:54:10.934Z,6.30
2022-09-15T02:56:43.573Z,7.20
2022-09-15T02:59:15.624Z,7.40
2022-09-15T03:01:47.410Z,6.70
2022-09-15T03:04:21.212Z,6.90
2022-09-15T03:06:52.948Z,7.00
2022-09-15T03:09:24.709Z,6.60
2022-09-15T03:11:56.745Z,7.10
2022-09-15T03:14:31.207Z,6.90
2022-09-15T03:17:03.108Z,6.70
2022-09-15T03:19:34.954Z,6.40
2022-09-15T03:22:07.219Z,6.90
2022-09-15T03:24:39.370Z,6.80
2022-09-15T03:27:11.126Z,8.20
2022-09-15T03:29:42.869Z,7.10
2022-09-15T03:32:14.632Z,6.90
2022-09-15T03:34:47.706Z,8.00
2022-09-15T03:37:19.402Z,7.50
2022-09-15T03:39:51.262Z,7.50
2022-09-15T03:42:42.968Z,9.50
2022-09-15T03:45:15.601Z,12.10
2022-09-15T03:47:47.386Z,30.40
2022-09-15T03:50:24.678Z,47.30
2022-09-15T03:52:58.822Z,45.00
2022-09-15T03:55:31.044Z,34.60
2022-09-15T03:58:02.769Z,28.10
2022-09-15T04:00:37.977Z,22.90
2022-09-15T04:03:10.680Z,17.30
2022-09-15T04:05:43.260Z,15.80
2022-09-15T04:08:15.591Z,14.00
2022-09-15T04:10:50.781Z,12.50
2022-09-15T04:13:26.667Z,11.60
2022-09-15T04:16:04.661Z,11.70
2022-09-15T04:18:36.983Z,8.40
2022-09-15T04:21:14.017Z,7.70
2022-09-15T04:23:46.643Z,6.20
2022-09-15T04:26:23.509Z,6.30
2022-09-15T04:28:55.256Z,6.00
2022-09-15T04:31:28.814Z,6.70
2022-09-15T04:34:00.614Z,5.90
2022-09-15T04:36:32.544Z,5.80
2022-09-15T04:39:06.123Z,7.10
2022-09-15T04:41:39.548Z,7.00
2022-09-15T04:44:11.285Z,6.40
2022-09-15T04:46:43.191Z,6.10
2022-09-15T04:49:15.008Z,6.50
2022-09-15T04:51:46.922Z,6.40
2022-09-15T04:54:18.601Z,6.70
2022-09-15T04:56:50.552Z,6.30
2022-09-15T04:59:22.222Z,6.60
2022-09-15T05:01:56.529Z,6.50
2022-09-15T05:04:29.151Z,6.70
2022-09-15T05:07:01.287Z,6.50
2022-09-15T05:09:33.577Z,5.90
2022-09-15T05:12:05.854Z,6.20
2022-09-15T05:14:38.333Z,6.00
2022-09-15T05:17:10.958Z,5.90
2022-09-15T05:19:42.754Z,5.70
2022-09-15T05:22:15.972Z,5.20
2022-09-15T05:24:47.722Z,5.40
2022-09-15T05:27:19.520Z,5.80
2022-09-15T05:30:04.323Z,4.90
2022-09-15T05:32:43.763Z,5.20
2022-09-15T05:35:15.651Z,5.80
2022-09-15T05:37:47.867Z,5.00
2022-09-15T05:40:22.832Z,5.40
2022-09-15T05:42:55.630Z,4.90
2022-09-15T05:45:27.833Z,5.00
2022-09-15T05:48:00.361Z,4.90
2022-09-15T05:50:32.996Z,5.10
2022-09-15T05:53:08.534Z,5.80
2022-09-15T05:55:41.215Z,4.70
2022-09-15T05:58:13.512Z,4.90
2022-09-15T06:00:45.709Z,4.80
2022-09-15T06:03:18.440Z,4.30
2022-09-15T06:05:50.496Z,5.10
2022-09-15T06:08:22.922Z,4.10
2022-09-15T06:10:57.760Z,4.40
2022-09-15T06:13:50.464Z,4.40
2022-09-15T06:16:32.284Z,3.80
2022-09-15T06:19:07.541Z,4.10
2022-09-15T06:21:40.464Z,3.90
2022-09-15T06:24:16.896Z,4.10
2022-09-15T06:26:49.288Z,3.80
2022-09-15T06:29:24.369Z,3.80
2022-09-15T06:32:07.560Z,4.30
2022-09-15T06:34:39.757Z,4.20
2022-09-15T06:37:14.246Z,4.70
2022-09-15T06:39:46.097Z,3.80
2022-09-15T06:42:17.999Z,4.20
2022-09-15T06:44:51.687Z,4.80
2022-09-15T06:47:23.930Z,3.50
2022-09-15T06:49:55.906Z,4.20
2022-09-15T06:52:27.665Z,3.90
2022-09-15T06:54:59.477Z,3.90
2022-09-15T06:57:31.281Z,4.60
2022-09-15T07:00:08.465Z,3.90
2022-09-15T07:02:41.085Z,4.00
2022-09-15T07:05:13.713Z,3.30
2022-09-15T07:07:45.556Z,4.40
2022-09-15T07:10:23.982Z,4.50
2022-09-15T07:12:55.897Z,4.10
2022-09-15T07:15:28.492Z,3.00
2022-09-15T07:18:01.433Z,3.40
2022-09-15T07:20:35.653Z,3.70
2022-09-15T07:23:07.397Z,2.90
2022-09-15T07:25:45.130Z,3.70
2022-09-15T07:28:17.429Z,2.80
2022-09-15T07:30:54.349Z,2.80
2022-09-15T07:33:26.075Z,2.60
2022-09-15T07:35:57.802Z,2.80
2022-09-15T07:38:29.482Z,2.70
2022-09-15T07:41:07.435Z,2.70
2022-09-15T07:43:39.293Z,2.90
2022-09-15T07:46:11.050Z,2.70
2022-09-15T07:48:44.296Z,2.90
2022-09-15T07:51:18.411Z,2.90
2022-09-15T07:53:50.719Z,2.90
2022-09-15T07:56:23.991Z,3.20
2022-09-15T07:58:55.861Z,3.00
2022-09-15T08:01:29.277Z,2.50
2022-09-15T08:04:01.162Z,2.60
2022-09-15T08:06:33.548Z,2.70
2022-09-15T08:09:05.922Z,2.00
2022-09-15T08:11:37.710Z,2.20
2022-09-15T08:14:09.618Z,2.50
2022-09-15T08:16:41.416Z,2.80
2022-09-15T08:19:14.347Z,2.30
2022-09-15T08:21:46.878Z,2.10
2022-09-15T08:24:18.581Z,2.00
2022-09-15T08:26:50.509Z,2.40
2022-09-15T08:29:23.013Z,1.80
2022-09-15T08:31:56.038Z,2.10
2022-09-15T08:34:30.042Z,2.00
2022-09-15T08:37:01.919Z,1.90
2022-09-15T08:39:33.626Z,2.50
2022-09-15T08:42:06.972Z,1.80
2022-09-15T08:44:43.099Z,1.90
2022-09-15T08:47:18.519Z,1.60
2022-09-15T08:50:00.073Z,2.00
2022-09-15T08:52:36.524Z,2.00
2022-09-15T08:55:14.562Z,1.70
2022-09-15T08:57:46.355Z,1.90
2022-09-15T09:00:20.384Z,2.10
2022-09-15T09:03:08.658Z,2.70
2022-09-15T09:05:55.240Z,2.50
2022-09-15T09:09:00.503Z,1.90
2022-09-15T09:11:46.435Z,2.20
2022-09-15T09:14:26.214Z,1.70
2022-09-15T09:17:11.917Z,1.70
2022-09-15T09:20:12.137Z,1.60
2022-09-15T09:22:51.756Z,1.60
2022-09-15T09:25:28.003Z,1.30
2022-09-15T09:28:02.934Z,1.50
2022-09-15T09:30:39.786Z,1.40
2022-09-15T09:33:21.265Z,1.40
2022-09-15T09:36:02.362Z,1.70
2022-09-15T09:38:38.991Z,1.70
2022-09-15T09:41:16.962Z,2.00
2022-09-15T09:44:06.500Z,1.40
2022-09-15T09:46:38.852Z,1.20
2022-09-15T09:49:18.249Z,1.40
2022-09-15T09:52:11.663Z,1.20
2022-09-15T09:55:23.184Z,1.30
2022-09-15T09:58:15.654Z,1.10
2022-09-15T10:00:47.679Z,1.20
2022-09-15T10:03:22.257Z,1.10
2022-09-15T10:06:08.852Z,1.10
2022-09-15T10:08:53.268Z,1.50
2022-09-15T10:11:42.126Z,1.40
2022-09-15T10:14:23.624Z,1.40
2022-09-15T10:17:08.388Z,1.60
2022-09-15T10:19:48.616Z,1.60
2022-09-15T10:22:29.723Z,1.60
2022-09-15T10:25:03.048Z,1.40
2022-09-15T10:27:36.793Z,1.50
2022-09-15T10:30:22.324Z,1.40
2022-09-15T10:32:54.126Z,1.60
2022-09-15T10:35:25.957Z,1.70
2022-09-15T10:38:06.017Z,1.30
2022-09-15T10:40:45.783Z,1.50
2022-09-15T10:43:32.801Z,1.30
2022-09-15T10:46:13.786Z,1.70
2022-09-15T10:49:05.233Z,1.50
2022-09-15T10:51:53.368Z,1.40
2022-09-15T10:54:46.412Z,1.50
2022-09-15T10:57:35.608Z,1.40
2022-09-15T11:00:12.043Z,1.30
2022-09-15T11:03:21.196Z,1.60
2022-09-15T11:06:01.294Z,1.20
2022-09-15T11:08:56.309Z,1.70
2022-09-15T11:11:36.050Z,1.50
2022-09-15T11:14:21.274Z,1.10
2022-09-15T11:17:10.201Z,1.30
2022-09-15T11:19:58.641Z,1.50
2022-09-15T11:22:34.409Z,1.60
2022-09-15T11:25:13.982Z,2.20
2022-09-15T11:27:50.263Z,1.30
2022-09-15T11:30:33.641Z,1.20
2022-09-15T11:33:12.779Z,1.50
2022-09-15T11:35:51.965Z,1.40
2022-09-15T11:38:42.950Z,1.00
2022-09-15T11:41:25.236Z,1.00
2022-09-15T11:44:16.744Z,0.90
2022-09-15T11:47:41.587Z,1.10
2022-09-15T11:50:27.691Z,1.40
2022-09-15T11:53:03.525Z,1.30
2022-09-15T11:55:43.224Z,1.80
2022-09-15T11:58:23.119Z,1.30
2022-09-15T12:00:57.825Z,1.40
2022-09-15T12:03:36.518Z,1.20
2022-09-15T12:06:13.688Z,1.40
2022-09-15T12:08:53.752Z,1.30
2022-09-15T12:11:28.367Z,1.30
2022-09-15T12:14:01.159Z,1.10
2022-09-15T12:16:35.105Z,1.30
2022-09-15T12:19:15.833Z,1.40
2022-09-15T12:21:58.032Z,1.10
2022-09-15T12:24:38.228Z,1.30
2022-09-15T12:27:16.414Z,1.30
2022-09-15T12:29:52.724Z,0.90
2022-09-15T12:32:27.745Z,1.10
2022-09-15T12:35:02.471Z,1.40
2022-09-15T12:37:40.916Z,1.10
2022-09-15T12:40:38.398Z,0.90
2022-09-15T12:43:23.758Z,1.10
2022-09-15T12:46:01.850Z,1.10
2022-09-15T12:48:36.720Z,0.90
2022-09-15T12:51:15.412Z,1.20
2022-09-15T12:53:55.535Z,1.10
2022-09-15T12:56:29.350Z,1.00
2022-09-15T12:59:09.044Z,1.20
2022-09-15T13:01:51.304Z,1.20
2022-09-15T13:04:53.075Z,1.00
2022-09-15T13:07:58.109Z,1.30
2022-09-15T13:10:42.728Z,1.10
2022-09-15T13:13:32.917Z,1.00
2022-09-15T13:16:11.557Z,1.40
2022-09-15T13:18:45.620Z,1.50
2022-09-15T13:21:22.880Z,1.60
2022-09-15T13:23:55.974Z,1.30
2022-09-15T13:26:30.446Z,0.90
2022-09-15T13:29:03.609Z,1.00
2022-09-15T13:31:45.416Z,1.00
2022-09-15T13:35:07.055Z,1.00
2022-09-15T13:38:12.167Z,0.90
2022-09-15T13:41:09.060Z,1.20
2022-09-15T13:43:57.407Z,1.70
2022-09-15T13:46:42.847Z,1.20
2022-09-15T13:49:46.712Z,0.90
2022-09-15T13:52:29.411Z,1.10
2022-09-15T13:55:21.315Z,1.20
2022-09-15T14:00:55.608Z,1.20
2022-09-15T14:03:37.244Z,1.20
2022-09-15T14:06:15.789Z,1.40
2022-09-15T14:08:51.323Z,1.60
2022-09-15T14:11:29.078Z,1.00
2022-09-15T14:14:01.569Z,1.10
2022-09-15T14:16:36.327Z,1.10
2022-09-15T14:19:29.590Z,1.10
2022-09-15T14:22:01.766Z,1.10
2022-09-15T14:24:34.847Z,1.30
2022-09-15T14:27:13.048Z,0.90
2022-09-15T14:29:45.365Z,1.00
2022-09-15T14:32:18.731Z,1.50
2022-09-15T14:34:51.975Z,1.20
2022-09-15T14:37:27.636Z,1.20
2022-09-15T14:40:01.495Z,1.20
2022-09-15T14:42:37.469Z,1.10
2022-09-15T14:50:43.609Z,1.00
2022-09-15T14:53:20.496Z,1.20
2022-09-15T14:55:57.196Z,1.10
2022-09-15T14:58:33.556Z,0.90
2022-09-15T15:01:13.483Z,1.00
2022-09-15T15:03:54.761Z,1.00
2022-09-15T15:06:32.788Z,1.20
2022-09-15T15:09:08.314Z,1.10
2022-09-15T15:11:42.450Z,1.30
2022-09-15T15:14:16.582Z,1.20
2022-09-15T15:16:57.867Z,1.70
2022-09-15T15:19:41.802Z,1.50
2022-09-15T15:22:21.431Z,1.30
2022-09-15T15:24:54.750Z,1.30
2022-09-15T15:27:51.754Z,1.20
2022-09-15T15:30:47.122Z,0.80
2022-09-15T15:33:28.707Z,1.20
2022-09-15T15:36:11.927Z,1.10
2022-09-15T15:38:50.979Z,1.10
2022-09-15T15:41:25.221Z,1.00
2022-09-15T15:44:03.541Z,1.20
2022-09-15T15:46:56.264Z,1.20
2022-09-15T15:49:30.265Z,1.00
2022-09-15T15:52:03.175Z,1.80
2022-09-15T15:54:36.426Z,1.00
2022-09-15T15:57:25.258Z,1.30
2022-09-15T16:00:00.951Z,1.10
2022-09-15T16:02:33.162Z,1.00
2022-09-15T16:05:05.110Z,1.20
2022-09-15T16:07:36.955Z,1.40
2022-09-15T16:13:18.600Z,1.50
2022-09-15T16:15:51.535Z,2.20
2022-09-15T16:18:23.377Z,7.20
2022-09-15T16:20:57.218Z,9.90
2022-09-15T16:23:28.899Z,2.30
2022-09-15T16:26:02.571Z,1.80
2022-09-15T16:28:34.765Z,1.40
2022-09-15T16:31:07.477Z,1.60
2022-09-15T16:33:39.272Z,1.50
2022-09-15T16:36:14.554Z,1.20
2022-09-15T16:38:46.778Z,1.20
2022-09-15T16:41:21.914Z,1.50
2022-09-15T16:43:55.844Z,1.40
2022-09-15T16:46:28.265Z,1.50
2022-09-15T16:49:00.073Z,1.20
2022-09-15T16:51:32.814Z,1.40
2022-09-15T16:54:04.621Z,1.40
2022-09-15T16:56:36.406Z,1.50
2022-09-15T16:59:08.397Z,1.50
2022-09-15T17:01:41.044Z,1.80
2022-09-15T17:04:15.916Z,1.90
2022-09-15T17:06:47.882Z,2.00
2022-09-15T17:09:20.472Z,1.90
2022-09-15T17:11:53.463Z,2.00
2022-09-15T17:14:25.092Z,2.50
2022-09-15T17:16:57.017Z,2.80
2022-09-15T17:19:28.741Z,2.80
2022-09-15T17:22:01.429Z,2.20
2022-09-15T17:24:33.239Z,1.40
2022-09-15T17:27:05.190Z,2.00
2022-09-15T17:29:38.754Z,1.70
2022-09-15T17:32:11.056Z,1.90
2022-09-15T17:34:42.769Z,1.90
2022-09-15T17:37:14.765Z,2.10
2022-09-15T17:39:50.023Z,1.90
2022-09-15T17:42:22.714Z,3.10
2022-09-15T17:44:54.452Z,4.60
2022-09-15T17:47:26.253Z,4.30
2022-09-15T17:49:57.986Z,3.60
2022-09-15T17:52:29.751Z,4.20
2022-09-15T17:55:02.293Z,4.10
2022-09-15T17:57:34.149Z,3.40
2022-09-15T18:00:11.134Z,4.40
2022-09-15T18:02:44.436Z,5.00
2022-09-15T18:05:23.020Z,4.40
2022-09-15T18:07:57.195Z,4.10
2022-09-15T18:10:30.175Z,4.00
2022-09-15T18:13:02.475Z,4.40
2022-09-15T18:15:36.061Z,5.10
2022-09-15T18:18:14.269Z,6.10
2022-09-15T18:20:46.502Z,6.10
2022-09-15T18:23:20.825Z,7.00
2022-09-15T18:25:53.569Z,8.10
2022-09-15T18:28:25.594Z,7.20
2022-09-15T18:30:58.131Z,7.60
2022-09-15T18:33:32.100Z,7.10
2022-09-15T18:36:07.016Z,6.50
2022-09-15T18:38:39.020Z,7.80
2022-09-15T18:41:13.082Z,7.00
2022-09-15T18:43:49.209Z,5.80
2022-09-15T18:46:21.382Z,4.60
2022-09-15T18:48:53.245Z,3.90
2022-09-15T18:51:40.906Z,3.10
2022-09-15T18:54:16.671Z,2.80
2022-09-15T18:56:48.417Z,3.10
2022-09-15T18:59:20.455Z,2.80
2022-09-15T19:01:52.521Z,2.20
2022-09-15T19:04:28.394Z,2.00
2022-09-15T19:07:03.048Z,1.90
2022-09-15T19:09:35.710Z,1.70
2022-09-15T19:12:07.972Z,1.60
2022-09-15T19:14:46.032Z,1.90
2022-09-15T19:17:19.108Z,1.20
2022-09-15T19:19:51.284Z,1.70
2022-09-15T19:22:24.765Z,1.90
2022-09-15T19:24:57.123Z,1.40
2022-09-15T19:27:29.322Z,1.60
2022-09-15T19:30:01.553Z,1.40
2022-09-15T19:32:35.208Z,1.80
2022-09-15T19:35:09.597Z,2.00
2022-09-15T19:37:42.993Z,1.80
2022-09-15T19:40:25.802Z,2.30
2022-09-15T19:42:58.239Z,1.70
2022-09-15T19:45:31.423Z,1.70
2022-09-15T19:48:03.816Z,1.60
2022-09-15T19:50:37.349Z,1.60
2022-09-15T19:53:09.052Z,2.20
2022-09-15T19:55:40.868Z,2.30
2022-09-15T19:58:12.729Z,2.10
2022-09-15T20:00:46.301Z,2.10
2022-09-15T20:03:18.218Z,2.00
2022-09-15T20:05:54.270Z,2.30
2022-09-15T20:08:28.269Z,2.40
2022-09-15T20:11:02.111Z,2.40
2022-09-15T20:13:39.319Z,2.10
2022-09-15T20:16:12.757Z,2.30
2022-09-15T20:18:46.776Z,1.70
2022-09-15T20:21:45.793Z,1.90
2022-09-15T20:24:14.605Z,1.90
2022-09-15T20:26:55.912Z,1.80
2022-09-15T20:29:28.158Z,1.40
2022-09-15T20:32:01.563Z,1.50
2022-09-15T20:34:33.536Z,1.70
2022-09-15T20:37:05.589Z,1.40
2022-09-15T20:39:38.032Z,1.90
2022-09-15T20:42:11.472Z,1.60
2022-09-15T20:44:43.477Z,1.90
2022-09-15T20:47:16.105Z,1.90
2022-09-15T20:49:48.048Z,2.00
2022-09-15T20:52:20.083Z,1.60
2022-09-15T20:54:52.084Z,2.00
2022-09-15T20:57:24.074Z,1.80
2022-09-15T20:59:56.027Z,1.60
2022-09-15T21:02:28.985Z,1.60
2022-09-15T21:05:00.977Z,1.80
2022-09-15T21:07:33.070Z,2.00
2022-09-15T21:10:05.132Z,1.50
2022-09-15T21:12:40.971Z,1.70
2022-09-15T21:15:13.829Z,2.10
2022-09-15T21:17:46.141Z,2.00
2022-09-15T21:20:18.498Z,2.50
2022-09-15T21:22:59.368Z,2.00
2022-09-15T21:25:31.290Z,2.00
2022-09-15T21:28:03.493Z,1.60
2022-09-15T21:30:35.540Z,1.80
2022-09-15T21:33:09.215Z,1.50
2022-09-15T21:35:42.094Z,1.30
2022-09-15T21:38:14.991Z,1.30
2022-09-15T21:40:50.859Z,1.60
2022-09-15T21:43:22.887Z,1.40
2022-09-15T21:45:59.126Z,1.60
2022-09-15T21:48:32.358Z,1.90
2022-09-15T21:51:05.875Z,1.30
2022-09-15T21:53:38.849Z,1.20
2022-09-15T21:56:12.740Z,1.10
2022-09-15T21:58:45.317Z,1.20
2022-09-15T22:01:19.820Z,1.40
2022-09-15T22:03:54.385Z,1.30
2022-09-15T22:06:30.305Z,1.10
2022-09-15T22:09:03.482Z,1.40
2022-09-15T22:11:36.397Z,1.00
2022-09-15T22:14:10.422Z,1.40
2022-09-15T22:16:43.611Z,1.10
2022-09-15T22:19:15.779Z,1.20
2022-09-15T22:21:47.730Z,1.20
2022-09-15T22:24:20.539Z,1.10
2022-09-15T22:26:52.445Z,1.30
2022-09-15T22:29:24.569Z,1.30
2022-09-15T22:31:56.544Z,1.10
2022-09-15T22:34:29.314Z,1.20
2022-09-15T22:37:01.337Z,0.90
2022-09-15T22:39:57.352Z,0.90
2022-09-15T22:42:25.600Z,0.90
2022-09-15T22:44:57.726Z,1.10
2022-09-15T22:47:29.678Z,1.00
2022-09-15T22:50:01.901Z,1.90
2022-09-15T22:52:33.872Z,2.00
2022-09-15T22:55:07.685Z,2.30
2022-09-15T22:57:39.777Z,2.00
2022-09-15T23:00:20.697Z,1.20
2022-09-15T23:02:52.600Z,1.40
2022-09-15T23:05:24.428Z,1.40
2022-09-15T23:07:56.179Z,2.00
2022-09-15T23:10:30.712Z,2.20
2022-09-15T23:13:02.473Z,2.60
2022-09-15T23:15:37.562Z,1.60
2022-09-15T23:18:09.212Z,1.30
2022-09-15T23:20:45.816Z,1.50
2022-09-15T23:23:17.589Z,2.10
2022-09-15T23:25:49.312Z,1.40
2022-09-15T23:28:21.109Z,1.60
2022-09-15T23:30:58.400Z,1.40
2022-09-15T23:33:35.500Z,1.60
2022-09-15T23:36:10.340Z,1.00
2022-09-15T23:38:44.397Z,1.50
2022-09-15T23:41:25.245Z,1.70
2022-09-15T23:43:57.948Z,1.80
2022-09-15T23:46:30.558Z,1.40
2022-09-15T23:49:02.807Z,1.30
2022-09-15T23:51:36.342Z,1.50
2022-09-15T23:54:08.217Z,1.10
2022-09-15T23:56:40.004Z,1.00
2022-09-15T23:59:12.069Z,1.10
